createdAt,value
2023-01-17T00:21:18.618Z,41.71
2023-01-17T00:41:18.591Z,41.7
2023-01-17T01:01:18.681Z,41.69
2023-01-17T01:21:18.574Z,41.69
2023-01-17T01:41:18.625Z,41.67
2023-01-17T02:01:18.658Z,41.63
2023-01-17T02:21:18.534Z,41.59
2023-01-17T02:41:18.528Z,41.56
2023-01-17T03:01:18.660Z,41.54
2023-01-17T03:21:18.526Z,41.52
2023-01-17T03:41:18.525Z,41.51
2023-01-17T04:01:18.640Z,41.5
2023-01-17T04:21:18.511Z,41.52
2023-01-17T04:41:18.504Z,41.52
2023-01-17T05:01:18.634Z,41.51
2023-01-17T05:21:18.507Z,41.49
2023-01-17T05:41:18.488Z,41.47
2023-01-17T06:21:18.473Z,41.44
2023-01-17T06:41:18.473Z,41.41
2023-01-17T07:01:18.574Z,41.4
2023-01-17T07:21:18.524Z,41.39
2023-01-17T08:21:18.470Z,41.29
2023-01-17T08:41:18.459Z,41.23
2023-01-17T09:21:18.387Z,41.18
2023-01-17T09:41:18.406Z,41.15
2023-01-17T10:01:18.563Z,41.12
2023-01-17T10:21:18.372Z,41.09
2023-01-17T11:21:18.332Z,40.94
2023-01-17T11:41:18.304Z,40.9
2023-01-17T12:01:18.051Z,40.87
2023-01-17T12:41:18.260Z,40.8
2023-01-17T13:01:18.318Z,40.78
2023-01-17T15:01:18.313Z,40.59
2023-01-17T15:21:18.158Z,40.56
2023-01-17T16:01:18.252Z,40.51
2023-01-17T16:21:18.115Z,40.48
2023-01-17T16:41:18.113Z,40.46
2023-01-17T17:01:18.252Z,40.44
2023-01-17T17:21:18.117Z,40.43
2023-01-17T17:41:18.109Z,40.4
2023-01-17T18:01:17.932Z,40.37
2023-01-17T18:21:18.083Z,40.32
2023-01-17T18:41:18.129Z,40.36
2023-01-17T19:01:18.267Z,40.33
2023-01-17T19:21:18.126Z,40.28
2023-01-17T19:41:18.131Z,40.27
2023-01-17T20:01:18.301Z,40.28
2023-01-17T20:21:18.160Z,40.2
2023-01-17T20:41:18.157Z,40.17
2023-01-17T21:41:18.212Z,40.13
2023-01-17T22:01:18.378Z,40.11
2023-01-17T22:21:18.223Z,40.09
2023-01-17T22:41:18.203Z,40.05
2023-01-17T23:01:18.282Z,40
2023-01-17T23:21:18.217Z,39.99
2023-01-17T23:41:18.287Z,39.96
